createdAt,value
2017-09-26T00:01:56.552Z,14.10
2017-09-26T00:04:24.127Z,14.20
2017-09-26T00:06:51.715Z,14.20
2017-09-26T00:09:20.359Z,14.20
2017-09-26T00:11:48.210Z,14.20
2017-09-26T00:14:15.775Z,14.10
2017-09-26T00:16:43.756Z,14.20
2017-09-26T00:19:11.326Z,14.20
2017-09-26T00:21:38.882Z,14.20
2017-09-26T00:24:06.957Z,14.20
2017-09-26T00:26:34.506Z,14.20
2017-09-26T00:29:02.065Z,14.20
2017-09-26T00:31:29.925Z,14.30
2017-09-26T00:33:57.622Z,14.20
2017-09-26T00:36:25.943Z,14.20
2017-09-26T00:39:03.767Z,14.20
2017-09-26T00:41:31.306Z,14.20
2017-09-26T00:43:58.889Z,14.20
2017-09-26T00:46:26.996Z,14.20
2017-09-26T00:48:55.516Z,14.20
2017-09-26T00:51:23.079Z,14.20
2017-09-26T00:53:50.956Z,14.20
2017-09-26T00:56:18.568Z,14.20
2017-09-26T00:58:46.146Z,14.20
2017-09-26T01:01:15.595Z,14.20
2017-09-26T01:03:50.591Z,14.30
2017-09-26T01:06:19.331Z,14.30
2017-09-26T01:08:56.729Z,14.20
2017-09-26T01:11:24.671Z,14.20
2017-09-26T01:13:53.167Z,14.30
2017-09-26T01:16:20.721Z,14.20
2017-09-26T01:18:48.344Z,14.20
2017-09-26T01:21:15.914Z,14.20
2017-09-26T01:23:43.483Z,14.30
2017-09-26T01:26:11.456Z,14.30
2017-09-26T01:28:39.012Z,14.30
2017-09-26T01:31:06.616Z,14.30
2017-09-26T01:33:35.008Z,14.20
2017-09-26T01:36:02.581Z,14.20
2017-09-26T01:38:30.157Z,14.30
2017-09-26T01:41:09.945Z,14.30
2017-09-26T01:43:37.517Z,14.30
2017-09-26T01:46:05.092Z,14.30
2017-09-26T01:48:33.767Z,14.30
2017-09-26T01:51:02.143Z,14.30
2017-09-26T01:53:29.727Z,14.30
2017-09-26T01:55:57.572Z,14.30
2017-09-26T01:58:31.569Z,14.30
2017-09-26T02:01:00.230Z,14.30
2017-09-26T02:03:27.779Z,14.30
2017-09-26T02:05:56.051Z,14.30
2017-09-26T02:08:24.050Z,14.30
2017-09-26T02:10:51.635Z,14.20
2017-09-26T02:13:19.186Z,14.20
2017-09-26T02:15:47.823Z,14.30
2017-09-26T02:18:15.414Z,14.20
2017-09-26T02:20:43.014Z,14.20
2017-09-26T02:23:10.629Z,14.20
2017-09-26T02:25:38.215Z,14.20
2017-09-26T02:28:05.807Z,14.20
2017-09-26T02:30:33.825Z,14.20
2017-09-26T02:33:01.424Z,14.20
2017-09-26T02:35:28.987Z,14.20
2017-09-26T02:37:57.047Z,14.20
2017-09-26T02:40:25.435Z,14.20
2017-09-26T02:42:53.031Z,14.20
2017-09-26T02:45:21.028Z,14.20
2017-09-26T02:47:48.598Z,14.20
2017-09-26T02:50:16.431Z,14.20
2017-09-26T02:52:44.055Z,14.20
2017-09-26T02:55:11.630Z,14.20
2017-09-26T02:57:39.217Z,14.20
2017-09-26T03:00:07.409Z,14.20
2017-09-26T03:02:34.968Z,14.20
2017-09-26T03:05:03.350Z,14.10
2017-09-26T03:07:30.971Z,14.10
2017-09-26T03:09:58.527Z,14.10
2017-09-26T03:12:26.128Z,14.10
2017-09-26T03:14:54.526Z,14.10
2017-09-26T03:17:22.156Z,14.10
2017-09-26T03:19:49.713Z,14.10
2017-09-26T03:22:17.796Z,14.10
2017-09-26T03:24:45.370Z,14.10
2017-09-26T03:27:12.920Z,14.10
2017-09-26T03:29:40.940Z,14.10
2017-09-26T03:32:08.508Z,14.10
2017-09-26T03:34:36.072Z,14.00
2017-09-26T03:37:04.167Z,14.00
2017-09-26T03:39:31.758Z,14.00
2017-09-26T03:41:59.349Z,14.00
2017-09-26T03:44:27.388Z,14.00
2017-09-26T03:46:55.702Z,14.00
2017-09-26T03:49:23.316Z,14.00
2017-09-26T03:51:51.968Z,14.00
2017-09-26T03:54:19.523Z,14.00
2017-09-26T03:56:47.177Z,14.00
2017-09-26T03:59:14.827Z,14.00
2017-09-26T04:01:42.421Z,14.00
2017-09-26T04:04:09.987Z,14.00
2017-09-26T04:06:37.956Z,14.00
2017-09-26T04:09:05.515Z,14.00
2017-09-26T04:11:33.086Z,14.10
2017-09-26T04:14:00.778Z,14.00
2017-09-26T04:16:28.338Z,14.00
2017-09-26T04:18:55.883Z,14.00
2017-09-26T04:21:24.533Z,14.00
2017-09-26T04:23:52.102Z,14.00
2017-09-26T04:26:19.663Z,14.00
2017-09-26T04:28:47.301Z,14.00
2017-09-26T04:31:14.861Z,14.00
2017-09-26T04:33:42.413Z,14.10
2017-09-26T04:36:10.286Z,14.00
2017-09-26T04:38:38.334Z,14.00
2017-09-26T04:41:06.107Z,14.00
2017-09-26T04:43:34.106Z,14.00
2017-09-26T04:46:01.739Z,14.00
2017-09-26T04:48:29.318Z,14.00
2017-09-26T04:50:58.460Z,14.00
2017-09-26T04:53:26.044Z,14.00
2017-09-26T04:55:53.615Z,14.00
2017-09-26T04:58:21.232Z,14.00
2017-09-26T05:00:48.798Z,13.90
2017-09-26T05:03:16.358Z,13.90
2017-09-26T05:05:43.969Z,13.90
2017-09-26T05:08:11.880Z,13.90
2017-09-26T05:10:39.580Z,13.90
2017-09-26T05:13:07.667Z,13.90
2017-09-26T05:15:35.240Z,13.80
2017-09-26T05:18:02.855Z,13.80
2017-09-26T05:20:30.518Z,13.80
2017-09-26T05:22:58.102Z,13.80
2017-09-26T05:25:25.683Z,13.80
2017-09-26T05:27:53.297Z,13.80
2017-09-26T05:30:20.846Z,13.90
2017-09-26T05:32:48.420Z,13.90
2017-09-26T05:35:16.286Z,13.90
2017-09-26T05:37:43.855Z,13.90
2017-09-26T05:40:11.432Z,13.90
2017-09-26T05:42:39.059Z,13.90
2017-09-26T05:45:06.616Z,14.00
2017-09-26T05:47:34.216Z,14.00
2017-09-26T05:50:01.835Z,14.00
2017-09-26T05:52:29.405Z,14.00
2017-09-26T05:54:57.078Z,14.10
2017-09-26T05:57:24.737Z,14.10
2017-09-26T05:59:52.311Z,14.20
2017-09-26T06:02:19.863Z,14.20
2017-09-26T06:04:47.501Z,14.20
2017-09-26T06:07:15.154Z,14.20
2017-09-26T06:09:42.708Z,14.20
2017-09-26T06:12:11.091Z,14.20
2017-09-26T06:14:38.651Z,14.20
2017-09-26T06:17:07.029Z,14.30
2017-09-26T06:19:34.977Z,14.20
2017-09-26T06:22:03.312Z,14.30
2017-09-26T06:24:30.901Z,14.20
2017-09-26T06:26:58.973Z,14.30
2017-09-26T06:29:26.528Z,14.30
2017-09-26T06:31:54.095Z,14.30
2017-09-26T06:34:21.702Z,14.40
2017-09-26T06:36:49.302Z,14.40
2017-09-26T06:39:16.882Z,14.40
2017-09-26T06:41:44.951Z,14.40
2017-09-26T06:44:12.523Z,14.40
2017-09-26T06:46:40.134Z,14.40
2017-09-26T06:49:07.881Z,14.40
2017-09-26T06:51:35.470Z,14.50
2017-09-26T06:54:03.025Z,14.50
2017-09-26T06:56:30.921Z,14.60
2017-09-26T06:58:58.565Z,14.60
2017-09-26T07:01:26.146Z,14.70
2017-09-26T07:03:54.087Z,14.70
2017-09-26T07:06:21.663Z,14.80
2017-09-26T07:08:49.265Z,14.80
2017-09-26T07:11:16.890Z,14.90
2017-09-26T07:13:45.080Z,15.00
2017-09-26T07:16:12.678Z,15.00
2017-09-26T07:18:40.305Z,15.10
2017-09-26T07:21:08.636Z,15.30
2017-09-26T07:23:36.223Z,15.30
2017-09-26T07:26:04.096Z,15.40
2017-09-26T07:28:31.663Z,15.40
2017-09-26T07:30:59.267Z,15.50
2017-09-26T07:33:26.963Z,15.50
2017-09-26T07:35:54.828Z,15.60
2017-09-26T07:38:22.407Z,15.80
2017-09-26T07:40:50.829Z,15.90
2017-09-26T07:43:18.379Z,15.90
2017-09-26T07:45:45.937Z,16.10
2017-09-26T07:48:13.616Z,16.40
2017-09-26T07:50:41.176Z,16.40
2017-09-26T07:53:08.769Z,16.40
2017-09-26T07:55:36.448Z,16.60
2017-09-26T07:58:04.068Z,16.80
2017-09-26T08:00:32.264Z,17.00
2017-09-26T08:03:00.361Z,17.20
2017-09-26T08:05:28.188Z,17.40
2017-09-26T08:07:56.533Z,17.60
2017-09-26T08:10:24.440Z,17.70
2017-09-26T08:12:52.001Z,17.80
2017-09-26T08:15:19.592Z,17.90
2017-09-26T08:17:48.260Z,18.10
2017-09-26T08:20:15.851Z,18.10
2017-09-26T08:22:43.421Z,18.10
2017-09-26T08:25:11.396Z,18.20
2017-09-26T08:27:39.084Z,18.30
2017-09-26T08:30:06.794Z,18.30
2017-09-26T08:32:35.170Z,18.40
2017-09-26T08:35:02.731Z,18.40
2017-09-26T08:37:31.060Z,18.60
2017-09-26T08:39:59.043Z,18.60
2017-09-26T08:42:26.600Z,18.50
2017-09-26T08:44:54.180Z,18.50
2017-09-26T08:47:21.809Z,18.70
2017-09-26T08:49:49.384Z,18.80
2017-09-26T08:52:16.949Z,18.60
2017-09-26T08:54:44.556Z,18.50
2017-09-26T08:57:12.155Z,18.60
2017-09-26T08:59:41.230Z,18.80
2017-09-26T09:02:09.247Z,18.80
2017-09-26T09:04:36.808Z,18.90
2017-09-26T09:07:04.391Z,19.00
2017-09-26T09:09:33.241Z,18.80
2017-09-26T09:12:00.795Z,18.80
2017-09-26T09:14:28.343Z,18.50
2017-09-26T09:16:55.999Z,18.30
2017-09-26T09:19:23.555Z,18.10
2017-09-26T09:21:51.142Z,18.30
2017-09-26T09:24:18.750Z,18.60
2017-09-26T09:26:46.294Z,18.80
2017-09-26T09:29:14.653Z,19.20
2017-09-26T09:31:42.295Z,19.20
2017-09-26T09:34:09.861Z,19.30
2017-09-26T09:36:37.418Z,19.40
2017-09-26T09:39:05.028Z,19.50
2017-09-26T09:41:32.614Z,19.60
2017-09-26T09:44:00.173Z,19.60
2017-09-26T09:46:28.068Z,19.70
2017-09-26T09:48:55.634Z,19.70
2017-09-26T09:51:23.976Z,19.80
2017-09-26T09:53:51.832Z,19.80
2017-09-26T09:56:19.424Z,19.80
2017-09-26T09:58:47.007Z,19.90
2017-09-26T10:01:14.618Z,19.90
2017-09-26T10:03:42.185Z,20.00
2017-09-26T10:06:09.738Z,20.00
2017-09-26T10:08:37.739Z,20.00
2017-09-26T10:11:05.279Z,20.10
2017-09-26T10:13:33.029Z,20.10
2017-09-26T10:16:00.921Z,20.20
2017-09-26T10:18:28.486Z,20.10
2017-09-26T10:20:56.075Z,20.00
2017-09-26T10:23:24.455Z,20.10
2017-09-26T10:25:52.003Z,20.10
2017-09-26T10:28:19.624Z,20.10
2017-09-26T10:30:47.517Z,20.20
2017-09-26T10:33:15.077Z,20.20
2017-09-26T10:35:42.633Z,20.20
2017-09-26T10:38:10.703Z,20.20
2017-09-26T10:40:38.254Z,20.20
2017-09-26T10:43:05.840Z,20.20
2017-09-26T10:45:34.208Z,20.20
2017-09-26T10:48:01.799Z,20.20
2017-09-26T10:50:30.116Z,20.20
2017-09-26T10:52:58.094Z,20.20
2017-09-26T10:55:25.675Z,20.20
2017-09-26T10:57:53.295Z,20.20
2017-09-26T11:00:21.649Z,20.20
2017-09-26T11:02:49.195Z,20.20
2017-09-26T11:05:17.566Z,20.10
2017-09-26T11:07:45.275Z,20.10
2017-09-26T11:10:12.830Z,20.00
2017-09-26T11:12:40.397Z,20.00
2017-09-26T11:15:08.340Z,19.90
2017-09-26T11:17:35.907Z,19.90
2017-09-26T11:20:03.479Z,19.90
2017-09-26T11:22:31.120Z,19.80
2017-09-26T11:24:58.723Z,19.80
2017-09-26T11:27:26.260Z,19.80
2017-09-26T11:29:53.910Z,19.70
2017-09-26T11:32:21.488Z,19.70
2017-09-26T11:34:49.052Z,19.70
2017-09-26T11:37:16.690Z,19.60
2017-09-26T11:39:44.309Z,19.60
2017-09-26T11:42:11.919Z,19.60
2017-09-26T11:44:39.559Z,19.50
2017-09-26T11:47:07.124Z,19.60
2017-09-26T11:49:35.187Z,19.60
2017-09-26T11:52:03.577Z,19.50
2017-09-26T11:54:31.191Z,19.40
2017-09-26T11:57:00.270Z,19.40
2017-09-26T11:59:28.263Z,19.40
2017-09-26T12:01:55.844Z,19.40
2017-09-26T12:04:23.420Z,19.30
2017-09-26T12:06:51.010Z,19.30
2017-09-26T12:09:18.625Z,19.50
2017-09-26T12:11:46.181Z,19.50
2017-09-26T12:14:14.564Z,19.50
2017-09-26T12:16:42.143Z,19.50
2017-09-26T12:19:09.768Z,19.50
2017-09-26T12:21:37.394Z,19.60
2017-09-26T12:24:04.964Z,19.60
2017-09-26T12:26:32.692Z,19.50
2017-09-26T12:29:00.332Z,19.50
2017-09-26T12:31:27.882Z,19.40
2017-09-26T12:33:56.236Z,19.40
2017-09-26T12:36:24.206Z,19.40
2017-09-26T12:38:51.767Z,19.40
2017-09-26T12:41:19.331Z,19.40
2017-09-26T12:43:46.961Z,19.50
2017-09-26T12:46:14.538Z,19.60
2017-09-26T12:48:42.150Z,19.70
2017-09-26T12:51:10.101Z,19.60
2017-09-26T12:53:38.424Z,19.60
2017-09-26T12:56:06.238Z,19.70
2017-09-26T12:58:34.687Z,19.70
2017-09-26T13:01:02.259Z,19.70
2017-09-26T13:03:29.809Z,19.70
2017-09-26T13:05:57.455Z,19.70
2017-09-26T13:08:25.042Z,19.70
2017-09-26T13:10:52.622Z,19.70
2017-09-26T13:13:21.023Z,19.80
2017-09-26T13:15:48.608Z,19.80
2017-09-26T13:18:16.217Z,19.80
2017-09-26T13:20:44.887Z,19.90
2017-09-26T13:23:12.623Z,19.80
2017-09-26T13:25:40.226Z,19.90
2017-09-26T13:28:08.628Z,19.90
2017-09-26T13:30:36.212Z,19.90
2017-09-26T13:33:03.781Z,20.00
2017-09-26T13:35:31.841Z,19.90
2017-09-26T13:37:59.490Z,19.90
2017-09-26T13:40:27.134Z,19.80
2017-09-26T13:42:54.743Z,19.90
2017-09-26T13:45:22.322Z,19.80
2017-09-26T13:47:49.903Z,19.80
2017-09-26T13:50:17.849Z,19.80
2017-09-26T13:52:45.415Z,19.80
2017-09-26T13:55:14.474Z,19.70
2017-09-26T13:57:42.106Z,19.70
2017-09-26T14:00:09.672Z,19.70
2017-09-26T14:02:37.249Z,19.70
2017-09-26T14:05:04.901Z,19.70
2017-09-26T14:07:32.465Z,19.70
2017-09-26T14:10:00.046Z,19.60
2017-09-26T14:12:27.829Z,19.60
2017-09-26T14:14:55.387Z,19.60
2017-09-26T14:17:22.979Z,19.60
2017-09-26T14:19:51.351Z,19.70
2017-09-26T14:22:18.911Z,19.60
2017-09-26T14:24:47.316Z,19.60
2017-09-26T14:27:14.939Z,19.50
2017-09-26T14:29:42.570Z,19.50
2017-09-26T14:32:10.167Z,19.50
2017-09-26T14:34:38.581Z,19.30
2017-09-26T14:37:06.123Z,19.30
2017-09-26T14:39:34.449Z,19.20
2017-09-26T14:42:02.068Z,19.20
2017-09-26T14:44:29.810Z,19.10
2017-09-26T14:46:57.575Z,19.00
2017-09-26T14:49:26.006Z,18.90
2017-09-26T14:51:53.568Z,18.90
2017-09-26T14:54:21.129Z,18.90
2017-09-26T14:56:49.567Z,18.90
2017-09-26T14:59:17.162Z,18.90
2017-09-26T15:01:45.384Z,18.90
2017-09-26T15:04:12.983Z,19.00
2017-09-26T15:06:40.523Z,19.00
2017-09-26T15:09:08.090Z,19.00
2017-09-26T15:11:35.768Z,19.00
2017-09-26T15:14:03.417Z,19.20
2017-09-26T15:16:30.996Z,19.20
2017-09-26T15:18:58.761Z,19.30
2017-09-26T15:21:26.332Z,19.30
2017-09-26T15:23:53.922Z,19.20
2017-09-26T15:26:21.740Z,19.10
2017-09-26T15:28:49.306Z,19.00
2017-09-26T15:31:16.886Z,18.90
2017-09-26T15:33:44.563Z,18.80
2017-09-26T15:36:12.139Z,18.70
2017-09-26T15:38:39.684Z,18.60
2017-09-26T15:41:07.307Z,18.50
2017-09-26T15:43:34.887Z,18.50
2017-09-26T15:46:02.493Z,18.40
2017-09-26T15:48:30.952Z,18.30
2017-09-26T15:50:59.292Z,18.30
2017-09-26T15:53:26.888Z,18.30
2017-09-26T15:55:55.268Z,18.20
2017-09-26T15:58:24.375Z,18.20
2017-09-26T16:00:51.936Z,18.20
2017-09-26T16:03:20.325Z,18.10
2017-09-26T16:05:47.923Z,18.10
2017-09-26T16:08:15.480Z,18.10
2017-09-26T16:10:43.824Z,18.10
2017-09-26T16:13:12.179Z,18.00
2017-09-26T16:15:40.543Z,18.00
2017-09-26T16:18:09.001Z,17.90
2017-09-26T16:20:36.569Z,18.00
2017-09-26T16:23:04.160Z,17.90
2017-09-26T16:25:32.579Z,17.80
2017-09-26T16:28:00.147Z,17.90
2017-09-26T16:30:27.708Z,17.80
2017-09-26T16:32:55.323Z,17.80
2017-09-26T16:35:22.900Z,17.80
2017-09-26T16:37:51.238Z,17.70
2017-09-26T16:40:18.868Z,17.70
2017-09-26T16:42:46.451Z,17.70
2017-09-26T16:45:14.551Z,17.60
2017-09-26T16:47:43.077Z,17.60
2017-09-26T16:50:10.642Z,17.60
2017-09-26T16:52:38.338Z,17.60
2017-09-26T16:55:05.975Z,17.50
2017-09-26T16:57:33.591Z,17.50
2017-09-26T17:00:01.147Z,17.40
2017-09-26T17:02:29.808Z,17.40
2017-09-26T17:04:57.383Z,17.30
2017-09-26T17:07:24.987Z,17.30
2017-09-26T17:09:52.641Z,17.30
2017-09-26T17:12:20.220Z,17.20
2017-09-26T17:14:47.874Z,17.20
2017-09-26T17:17:15.779Z,17.20
2017-09-26T17:19:43.373Z,17.20
2017-09-26T17:22:10.931Z,17.20
2017-09-26T17:24:39.357Z,17.10
2017-09-26T17:27:06.938Z,17.10
2017-09-26T17:29:34.531Z,17.10
2017-09-26T17:32:03.385Z,17.00
2017-09-26T17:34:30.985Z,17.00
2017-09-26T17:36:58.600Z,17.00
2017-09-26T17:39:26.225Z,16.90
2017-09-26T17:41:53.819Z,16.90
2017-09-26T17:44:21.400Z,16.80
2017-09-26T17:46:49.093Z,16.80
2017-09-26T17:49:16.818Z,16.80
2017-09-26T17:51:44.391Z,16.80
2017-09-26T17:54:12.196Z,16.80
2017-09-26T17:56:39.827Z,16.70
2017-09-26T17:59:08.160Z,16.70
2017-09-26T18:01:35.843Z,16.70
2017-09-26T18:04:03.406Z,16.70
2017-09-26T18:06:31.781Z,16.60
2017-09-26T18:08:59.782Z,16.60
2017-09-26T18:11:28.132Z,16.60
2017-09-26T18:13:56.473Z,16.60
2017-09-26T18:16:24.575Z,16.60
2017-09-26T18:18:52.216Z,16.60
2017-09-26T18:21:19.787Z,16.60
2017-09-26T18:23:47.563Z,16.60
2017-09-26T18:26:15.194Z,16.50
2017-09-26T18:28:42.849Z,16.50
2017-09-26T18:31:10.536Z,16.50
2017-09-26T18:33:39.381Z,16.40
2017-09-26T18:36:06.993Z,16.40
2017-09-26T18:38:35.517Z,16.30
2017-09-26T18:41:04.515Z,16.30
2017-09-26T18:43:32.451Z,16.30
2017-09-26T18:46:00.134Z,16.30
2017-09-26T18:48:27.757Z,16.20
2017-09-26T18:50:55.394Z,16.20
2017-09-26T18:53:24.047Z,16.10
2017-09-26T18:55:51.698Z,16.10
2017-09-26T18:58:20.394Z,16.10
2017-09-26T19:00:48.039Z,16.10
2017-09-26T19:03:16.409Z,16.10
2017-09-26T19:05:44.131Z,16.10
2017-09-26T19:08:11.780Z,16.10
2017-09-26T19:10:39.378Z,16.10
2017-09-26T19:13:06.962Z,16.10
2017-09-26T19:15:35.642Z,16.10
2017-09-26T19:18:04.008Z,16.10
2017-09-26T19:20:31.570Z,16.10
2017-09-26T19:22:59.987Z,16.10
2017-09-26T19:25:27.739Z,16.10
2017-09-26T19:27:56.082Z,16.10
2017-09-26T19:30:23.852Z,16.00
2017-09-26T19:32:51.546Z,16.00
2017-09-26T19:35:19.865Z,16.00
2017-09-26T19:37:47.494Z,16.00
2017-09-26T19:40:15.050Z,16.00
2017-09-26T19:42:42.647Z,16.00
2017-09-26T19:45:10.278Z,15.90
2017-09-26T19:47:37.843Z,15.90
2017-09-26T19:50:05.436Z,15.90
2017-09-26T19:52:33.076Z,15.80
2017-09-26T19:55:00.670Z,15.80
2017-09-26T19:57:28.235Z,15.80
2017-09-26T19:59:56.651Z,15.70
2017-09-26T20:02:24.233Z,15.80
2017-09-26T20:04:51.819Z,15.70
2017-09-26T20:07:19.449Z,15.70
2017-09-26T20:09:47.583Z,15.60
2017-09-26T20:12:15.187Z,15.60
2017-09-26T20:14:42.791Z,15.60
2017-09-26T20:17:10.362Z,15.60
2017-09-26T20:19:37.915Z,15.60
2017-09-26T20:22:05.758Z,15.60
2017-09-26T20:24:33.335Z,15.60
2017-09-26T20:27:00.911Z,15.60
2017-09-26T20:29:29.454Z,15.60
2017-09-26T20:31:57.122Z,15.50
2017-09-26T20:34:24.723Z,15.50
2017-09-26T20:36:52.359Z,15.50
2017-09-26T20:39:21.030Z,15.50
2017-09-26T20:41:48.608Z,15.40
2017-09-26T20:44:16.239Z,15.40
2017-09-26T20:46:43.892Z,15.40
2017-09-26T20:49:11.546Z,15.40
2017-09-26T20:51:39.216Z,15.40
2017-09-26T20:54:06.807Z,15.30
2017-09-26T20:56:34.392Z,15.30
2017-09-26T20:59:02.039Z,15.30
2017-09-26T21:01:29.600Z,15.30
2017-09-26T21:03:57.178Z,15.20
2017-09-26T21:06:24.810Z,15.20
2017-09-26T21:08:52.556Z,15.20
2017-09-26T21:11:20.157Z,15.20
2017-09-26T21:13:47.787Z,15.20
2017-09-26T21:16:15.359Z,15.10
2017-09-26T21:18:42.902Z,15.10
2017-09-26T21:21:10.516Z,15.10
2017-09-26T21:23:38.124Z,15.10
2017-09-26T21:26:05.725Z,15.10
2017-09-26T21:28:33.339Z,15.20
2017-09-26T21:31:00.909Z,15.20
2017-09-26T21:33:28.522Z,15.20
2017-09-26T21:35:56.144Z,15.20
2017-09-26T21:38:23.724Z,15.20
2017-09-26T21:40:52.096Z,15.20
2017-09-26T21:43:19.712Z,15.20
2017-09-26T21:45:47.280Z,15.20
2017-09-26T21:48:14.847Z,15.30
2017-09-26T21:50:43.289Z,15.30
2017-09-26T21:53:10.850Z,15.20
2017-09-26T21:55:38.439Z,15.30
2017-09-26T21:58:06.087Z,15.30
2017-09-26T22:00:33.648Z,15.30
2017-09-26T22:03:01.207Z,15.30
2017-09-26T22:05:28.812Z,15.30
2017-09-26T22:07:57.144Z,15.30
2017-09-26T22:10:24.719Z,15.30
2017-09-26T22:12:52.603Z,15.40
2017-09-26T22:15:20.186Z,15.40
2017-09-26T22:17:47.768Z,15.40
2017-09-26T22:20:15.651Z,15.40
2017-09-26T22:22:43.420Z,15.40
2017-09-26T22:25:10.968Z,15.40
2017-09-26T22:27:38.594Z,15.40
2017-09-26T22:30:06.918Z,15.40
2017-09-26T22:32:34.510Z,15.40
2017-09-26T22:35:02.208Z,15.40
2017-09-26T22:37:30.603Z,15.40
2017-09-26T22:39:58.167Z,15.40
2017-09-26T22:42:25.837Z,15.40
2017-09-26T22:44:53.401Z,15.40
2017-09-26T22:47:20.945Z,15.40
2017-09-26T22:49:48.759Z,15.40
2017-09-26T22:52:16.348Z,15.40
2017-09-26T22:54:43.934Z,15.30
2017-09-26T22:57:11.538Z,15.30
2017-09-26T22:59:39.122Z,15.40
2017-09-26T23:02:06.714Z,15.30
2017-09-26T23:04:34.350Z,15.40
2017-09-26T23:07:02.685Z,15.40
2017-09-26T23:09:31.101Z,15.40
2017-09-26T23:11:59.716Z,15.40
2017-09-26T23:14:27.350Z,15.40
2017-09-26T23:16:55.142Z,15.40
2017-09-26T23:19:22.793Z,15.40
2017-09-26T23:21:50.677Z,15.40
2017-09-26T23:24:18.274Z,15.40
2017-09-26T23:26:45.892Z,15.40
2017-09-26T23:29:13.630Z,15.50
2017-09-26T23:31:41.223Z,15.50
2017-09-26T23:34:08.890Z,15.40
2017-09-26T23:36:36.507Z,15.40
2017-09-26T23:39:04.051Z,15.40
2017-09-26T23:41:32.960Z,15.40
2017-09-26T23:44:00.530Z,15.30
2017-09-26T23:46:28.076Z,15.40
2017-09-26T23:48:56.451Z,15.40
2017-09-26T23:51:24.048Z,15.30
2017-09-26T23:53:51.694Z,15.30
2017-09-26T23:56:19.499Z,15.30
2017-09-26T23:58:47.076Z,15.30
